Time;durP1;ratioP1;P1;durP2;ratioP2;P2;SDS_P1;SDS_P2;PMS_P1;PMS_P2;Temp;Humidity;BMP_temperature;BMP_pressure;BME280_temperature;BME280_humidity;BME280_pressure;Samples;Min_cycle;Max_cycle;Signal;HPM_P1;HPM_P2
2023/01/18 00:00:10;;;;;;;9.43;4.60;;;-0.60;99.90;;;;;;5031675;28;20041;-66
2023/01/18 00:02:36;;;;;;;10.00;6.57;;;-0.60;99.90;;;;;;5008339;28;20534;-66
2023/01/18 00:05:03;;;;;;;10.20;5.05;;;-0.60;99.90;;;;;;5030314;28;20041;-66
2023/01/18 00:07:30;;;;;;;7.97;5.38;;;-0.60;99.90;;;;;;5030163;28;20747;-63
2023/01/18 00:09:56;;;;;;;8.27;5.32;;;-0.60;99.90;;;;;;5026135;28;20062;-64
2023/01/18 00:12:21;;;;;;;11.88;5.60;;;-0.60;99.90;;;;;;5016641;28;20541;-67
2023/01/18 00:14:47;;;;;;;9.70;6.45;;;-0.50;99.90;;;;;;5007369;28;20041;-66
2023/01/18 00:17:13;;;;;;;8.65;5.32;;;-0.60;99.90;;;;;;5032625;28;20044;-66
2023/01/18 00:19:38;;;;;;;12.30;4.95;;;-0.50;99.90;;;;;;5018285;28;20071;-66
2023/01/18 00:22:04;;;;;;;7.03;4.63;;;-0.50;99.90;;;;;;5031293;28;20114;-66
2023/01/18 00:24:30;;;;;;;12.27;5.55;;;-0.50;99.90;;;;;;5001038;28;20044;-63
2023/01/18 00:26:56;;;;;;;8.77;5.65;;;-0.50;99.90;;;;;;5015071;28;20195;-67
2023/01/18 00:29:22;;;;;;;11.05;5.85;;;-0.50;99.90;;;;;;5035016;28;20045;-66
2023/01/18 00:31:47;;;;;;;8.35;5.00;;;-0.50;99.90;;;;;;5034391;28;20056;-63
2023/01/18 00:34:13;;;;;;;7.00;4.88;;;-0.50;99.90;;;;;;5008202;28;20139;-65
2023/01/18 00:36:39;;;;;;;7.40;4.47;;;-0.50;99.90;;;;;;4998986;28;20033;-66
2023/01/18 00:39:07;;;;;;;9.05;4.32;;;-0.50;99.90;;;;;;5033572;28;20087;-66
2023/01/18 00:41:33;;;;;;;8.80;4.90;;;-0.50;99.90;;;;;;5016109;28;20173;-64
2023/01/18 00:43:59;;;;;;;7.50;4.65;;;-0.50;99.90;;;;;;5015670;28;20486;-66
2023/01/18 00:46:28;;;;;;;11.40;5.07;;;-0.50;99.90;;;;;;5010353;28;20048;-66
2023/01/18 00:48:56;;;;;;;7.20;4.30;;;-0.60;99.90;;;;;;5029737;28;20053;-63
2023/01/18 00:51:23;;;;;;;6.60;4.63;;;-0.60;99.90;;;;;;5012117;28;20071;-63
2023/01/18 00:53:50;;;;;;;9.18;4.55;;;-0.60;99.90;;;;;;5032934;28;20048;-66
2023/01/18 00:56:18;;;;;;;7.15;4.90;;;-0.60;99.90;;;;;;5030969;28;20072;-63
2023/01/18 00:58:45;;;;;;;10.43;4.75;;;-0.60;99.90;;;;;;5012692;28;20529;-65
2023/01/18 01:01:12;;;;;;;6.78;4.55;;;-0.60;99.90;;;;;;5010913;28;20071;-65
2023/01/18 01:06:45;;;;;;;8.38;4.50;;;-0.70;99.90;;;;;;5031663;28;20053;-67
2023/01/18 01:09:18;;;;;;;6.78;4.22;;;-0.70;99.90;;;;;;5032955;28;20190;-66
2023/01/18 01:28:13;;;;;;;5.97;4.40;;;-0.80;99.90;;;;;;5043606;28;20122;-66
2023/01/18 01:30:39;;;;;;;9.15;4.88;;;-0.80;99.90;;;;;;5043085;28;20434;-66
2023/01/18 01:33:05;;;;;;;6.07;4.50;;;-0.80;99.90;;;;;;5036009;28;20036;-65
2023/01/18 01:35:31;;;;;;;10.65;5.03;;;-0.80;99.90;;;;;;5016378;28;20045;-65
2023/01/18 01:37:56;;;;;;;6.03;4.45;;;-0.80;99.90;;;;;;5035959;28;20049;-66
2023/01/18 01:40:23;;;;;;;7.80;5.03;;;-0.80;99.90;;;;;;5018668;28;20144;-64
2023/01/18 01:42:49;;;;;;;10.40;4.72;;;-0.80;99.90;;;;;;5003091;28;20048;-64
2023/01/18 01:45:17;;;;;;;6.72;4.47;;;-0.80;99.90;;;;;;5033142;28;20544;-64
2023/01/18 01:47:45;;;;;;;8.02;4.97;;;-0.90;99.90;;;;;;5032472;28;20045;-63
2023/01/18 01:50:19;;;;;;;5.75;4.78;;;-0.90;99.90;;;;;;5029531;28;20128;-67
2023/01/18 01:52:46;;;;;;;8.73;4.47;;;-0.90;99.90;;;;;;5019214;28;20125;-66
2023/01/18 01:55:21;;;;;;;7.93;4.63;;;-0.90;99.90;;;;;;5029560;28;20411;-65
2023/01/18 01:57:56;;;;;;;8.02;4.63;;;-0.90;99.90;;;;;;5032659;28;20554;-67
2023/01/18 02:00:23;;;;;;;7.85;5.05;;;-1.00;99.90;;;;;;5030114;28;20056;-65
2023/01/18 02:03:00;;;;;;;10.77;4.93;;;-0.90;99.90;;;;;;5014184;28;20095;-66
2023/01/18 02:05:28;;;;;;;7.97;5.03;;;-0.90;99.90;;;;;;5013648;28;20395;-66
2023/01/18 02:08:00;;;;;;;8.77;5.00;;;-0.90;99.90;;;;;;4996312;28;20041;-63
2023/01/18 02:10:27;;;;;;;8.47;5.00;;;-0.90;99.90;;;;;;5014362;28;20056;-67
2023/01/18 02:12:55;;;;;;;9.02;4.90;;;-0.90;99.90;;;;;;5038082;28;20306;-64
2023/01/18 02:15:26;;;;;;;9.27;4.72;;;-0.90;99.90;;;;;;5017818;28;20044;-66
2023/01/18 02:18:22;;;;;;;10.05;4.72;;;-0.90;99.90;;;;;;5007698;28;20130;-66
2023/01/18 02:21:05;;;;;;;6.60;4.85;;;-0.90;99.90;;;;;;5032096;28;20090;-66
2023/01/18 02:23:40;;;;;;;7.80;5.05;;;-0.90;99.90;;;;;;5036103;28;20672;-64
2023/01/18 02:26:28;;;;;;;9.85;5.43;;;-0.80;99.90;;;;;;5031257;28;20052;-65
2023/01/18 02:29:12;;;;;;;8.60;5.53;;;-0.80;99.90;;;;;;5003088;28;20447;-65
2023/01/18 02:31:57;;;;;;;9.65;5.38;;;-0.80;99.90;;;;;;5032654;28;21085;-65
2023/01/18 02:34:37;;;;;;;14.27;4.80;;;-0.80;99.90;;;;;;5015307;28;20051;-64
2023/01/18 02:37:09;;;;;;;9.02;5.97;;;-0.80;99.90;;;;;;5014624;28;20065;-64
2023/01/18 02:40:13;;;;;;;10.18;5.30;;;-0.80;99.90;;;;;;5035134;28;20037;-65
2023/01/18 02:48:21;;;;;;;7.57;4.90;;;-0.80;99.90;;;;;;5031901;28;20227;-64
2023/01/18 02:50:47;;;;;;;10.23;5.18;;;-0.80;99.90;;;;;;5032728;28;20503;-64
2023/01/18 02:53:13;;;;;;;10.70;4.57;;;-0.80;99.90;;;;;;5026979;28;20048;-66
2023/01/18 02:56:02;;;;;;;8.27;5.20;;;-0.80;99.90;;;;;;5009684;28;20522;-66
2023/01/18 02:58:37;;;;;;;9.45;5.00;;;-0.80;99.90;;;;;;4990599;28;20068;-66
2023/01/18 03:01:15;;;;;;;8.95;4.90;;;-0.80;99.90;;;;;;5018147;28;20088;-63
2023/01/18 03:03:45;;;;;;;11.55;5.60;;;-0.80;99.90;;;;;;5036167;28;20492;-66
2023/01/18 03:06:12;;;;;;;8.85;5.40;;;-0.70;99.90;;;;;;5029886;28;20076;-66
2023/01/18 03:08:43;;;;;;;10.15;5.63;;;-0.70;99.90;;;;;;5017594;28;20052;-65
2023/01/18 03:11:15;;;;;;;10.30;6.35;;;-0.70;99.90;;;;;;5014903;28;20513;-62
2023/01/18 03:13:48;;;;;;;12.38;5.93;;;-0.70;99.90;;;;;;5032311;28;20048;-63
2023/01/18 03:16:56;;;;;;;11.18;6.47;;;-0.70;99.90;;;;;;5035810;28;20045;-65
2023/01/18 03:25:44;;;;;;;10.32;5.25;;;-0.70;99.90;;;;;;5034061;28;20045;-66
2023/01/18 03:34:37;;;;;;;9.60;5.50;;;-0.80;99.90;;;;;;5018757;28;20072;-66
2023/01/18 03:37:11;;;;;;;9.02;6.10;;;-0.80;99.90;;;;;;5010787;28;20057;-67
2023/01/18 03:39:53;;;;;;;11.50;6.80;;;-0.80;99.90;;;;;;5016450;28;20053;-64
2023/01/18 03:42:34;;;;;;;10.57;6.35;;;-0.80;99.90;;;;;;5016507;28;20041;-65
2023/01/18 03:45:06;;;;;;;7.72;6.18;;;-0.90;99.90;;;;;;5014420;28;20057;-66
2023/01/18 03:47:32;;;;;;;11.05;6.82;;;-0.90;99.90;;;;;;5035755;28;20051;-66
2023/01/18 03:49:58;;;;;;;11.63;6.57;;;-0.80;99.90;;;;;;5015829;28;20511;-63
2023/01/18 03:52:30;;;;;;;8.18;6.43;;;-0.90;99.90;;;;;;5019305;28;20106;-66
2023/01/18 03:55:08;;;;;;;8.48;6.60;;;-0.40;99.90;;;;;;5000901;28;20045;-64
2023/01/18 03:57:42;;;;;;;10.73;7.00;;;-0.90;99.90;;;;;;5036204;28;20060;-66
2023/01/18 04:00:10;;;;;;;10.52;7.22;;;-0.90;99.90;;;;;;5016814;28;20072;-66
2023/01/18 04:02:36;;;;;;;12.90;7.10;;;-0.90;99.90;;;;;;5020518;28;20048;-66
2023/01/18 04:05:03;;;;;;;13.00;7.70;;;-0.90;99.90;;;;;;5013648;28;20053;-66
2023/01/18 04:07:30;;;;;;;13.88;7.75;;;-0.90;99.90;;;;;;5042094;28;20120;-67
2023/01/18 04:09:57;;;;;;;10.00;6.72;;;-0.90;99.90;;;;;;5035361;28;20057;-62
2023/01/18 04:12:23;;;;;;;9.05;6.68;;;-0.90;99.90;;;;;;4994862;28;20052;-66
2023/01/18 04:14:49;;;;;;;11.90;7.78;;;-0.90;99.90;;;;;;5035234;28;20033;-63
2023/01/18 04:17:16;;;;;;;11.68;7.18;;;-0.90;99.90;;;;;;5034760;28;20056;-66
2023/01/18 04:19:42;;;;;;;12.18;7.95;;;-1.00;99.90;;;;;;5030672;28;20127;-67
2023/01/18 04:22:08;;;;;;;10.57;7.40;;;-0.90;99.90;;;;;;5032374;28;20041;-66
2023/01/18 04:24:34;;;;;;;11.05;7.50;;;-1.00;99.90;;;;;;5014759;28;20558;-65
2023/01/18 04:27:01;;;;;;;13.07;8.25;;;-1.00;99.90;;;;;;5018176;28;20067;-66
2023/01/18 04:29:27;;;;;;;13.32;7.80;;;-1.00;99.90;;;;;;5012415;28;20071;-64
2023/01/18 04:31:53;;;;;;;10.32;7.80;;;-1.00;99.90;;;;;;5033331;28;20052;-66
2023/01/18 04:34:21;;;;;;;11.43;7.90;;;-1.00;99.90;;;;;;5017215;28;20044;-63
2023/01/18 04:36:46;;;;;;;11.88;7.40;;;-1.00;99.90;;;;;;5017044;28;20044;-64
2023/01/18 04:39:13;;;;;;;14.18;7.80;;;-1.00;99.90;;;;;;5012256;28;20076;-63
2023/01/18 04:41:39;;;;;;;17.65;7.93;;;-1.00;99.90;;;;;;5013720;28;20490;-64
2023/01/18 04:44:05;;;;;;;15.15;8.80;;;-1.00;99.90;;;;;;5032079;28;20517;-63
2023/01/18 04:46:31;;;;;;;17.35;9.05;;;-1.10;99.90;;;;;;5032136;28;20040;-66
2023/01/18 04:48:56;;;;;;;11.95;8.38;;;-1.00;99.90;;;;;;5035017;28;20045;-67
2023/01/18 04:51:23;;;;;;;16.08;7.68;;;-1.00;99.90;;;;;;5011043;28;20053;-63
2023/01/18 04:53:49;;;;;;;15.45;8.10;;;-1.00;99.90;;;;;;5022001;28;20091;-65
2023/01/18 04:56:16;;;;;;;10.57;7.72;;;-1.00;99.90;;;;;;5014813;28;20488;-67
2023/01/18 04:58:42;;;;;;;13.60;8.40;;;-1.00;99.90;;;;;;5026274;28;20052;-65
2023/01/18 05:01:12;;;;;;;12.45;7.45;;;-1.00;99.90;;;;;;5033078;28;20051;-63
2023/01/18 05:03:40;;;;;;;11.40;7.85;;;-1.00;99.90;;;;;;5017329;28;20054;-67
2023/01/18 05:06:11;;;;;;;13.98;8.35;;;-1.00;99.90;;;;;;4993087;28;20510;-67
2023/01/18 05:08:41;;;;;;;16.08;8.27;;;-1.00;99.90;;;;;;5035858;28;20056;-66
2023/01/18 05:11:10;;;;;;;14.63;8.02;;;-1.00;99.90;;;;;;5012542;28;20506;-63
2023/01/18 05:13:36;;;;;;;11.52;8.18;;;-1.00;99.90;;;;;;5031122;28;20071;-66
2023/01/18 05:16:04;;;;;;;17.65;8.00;;;-1.00;99.90;;;;;;5032438;28;20068;-66
2023/01/18 05:18:30;;;;;;;12.93;7.78;;;-1.00;99.90;;;;;;4982174;28;20132;-66
2023/01/18 05:20:55;;;;;;;13.52;8.10;;;-1.00;99.90;;;;;;5030507;28;20067;-67
2023/01/18 05:23:22;;;;;;;18.73;8.43;;;-1.00;99.90;;;;;;5015214;28;20048;-66
2023/01/18 05:25:57;;;;;;;14.75;8.55;;;-1.00;99.90;;;;;;5014628;28;20040;-65
2023/01/18 05:28:25;;;;;;;14.90;8.25;;;-1.00;99.90;;;;;;5007402;28;20081;-65
2023/01/18 05:30:51;;;;;;;13.60;7.88;;;-1.00;99.90;;;;;;5025631;28;20052;-63
2023/01/18 05:33:18;;;;;;;14.68;8.00;;;-1.00;99.90;;;;;;5016340;28;20037;-67
2023/01/18 05:35:53;;;;;;;18.55;8.45;;;-1.00;99.90;;;;;;5034390;28;20076;-65
2023/01/18 05:38:20;;;;;;;12.63;8.57;;;-1.00;99.90;;;;;;5030714;28;20411;-64
2023/01/18 05:40:51;;;;;;;16.45;8.40;;;-1.00;99.90;;;;;;5036127;28;20064;-66
2023/01/18 05:43:19;;;;;;;15.55;9.18;;;-1.00;99.90;;;;;;5042653;28;20064;-63
2023/01/18 05:45:44;;;;;;;16.38;9.85;;;-1.00;99.90;;;;;;5008867;28;20421;-67
2023/01/18 05:48:11;;;;;;;14.38;9.20;;;-1.00;99.90;;;;;;5036966;28;20048;-63
2023/01/18 05:50:44;;;;;;;15.25;9.07;;;-1.00;99.90;;;;;;5003239;28;20116;-67
2023/01/18 05:53:11;;;;;;;18.83;9.32;;;-1.00;99.90;;;;;;5033600;28;20114;-66
2023/01/18 05:55:36;;;;;;;15.02;10.05;;;-1.00;99.90;;;;;;5032841;28;20142;-64
2023/01/18 05:58:03;;;;;;;17.40;9.15;;;-1.10;99.90;;;;;;5024790;28;20049;-62
2023/01/18 06:00:28;;;;;;;17.60;9.80;;;-1.00;99.90;;;;;;5029288;28;20049;-65
2023/01/18 06:02:54;;;;;;;18.75;9.40;;;-1.00;99.90;;;;;;5005709;28;20080;-66
2023/01/18 06:05:22;;;;;;;18.50;10.27;;;-1.00;99.90;;;;;;5015425;28;20411;-63
2023/01/18 06:07:47;;;;;;;14.98;10.27;;;-1.00;99.90;;;;;;5014977;28;20037;-67
2023/01/18 06:10:13;;;;;;;14.70;9.77;;;-1.00;99.90;;;;;;5017597;28;20041;-66
2023/01/18 06:12:40;;;;;;;17.10;9.85;;;-1.00;99.90;;;;;;5032728;28;20053;-65
2023/01/18 06:15:07;;;;;;;16.83;10.10;;;-1.10;99.90;;;;;;5030454;28;20132;-66
2023/01/18 06:17:34;;;;;;;20.10;10.02;;;-1.10;99.90;;;;;;5033095;28;20064;-63
2023/01/18 06:20:00;;;;;;;15.57;10.38;;;-1.10;99.90;;;;;;5012366;28;20063;-66
2023/01/18 06:22:26;;;;;;;14.27;9.88;;;-1.10;99.90;;;;;;5033462;28;20041;-63
2023/01/18 06:24:52;;;;;;;16.50;10.05;;;-1.10;99.90;;;;;;5035590;28;20083;-66
2023/01/18 06:27:18;;;;;;;17.00;10.15;;;-1.10;99.90;;;;;;5035293;28;20044;-66
2023/01/18 06:29:43;;;;;;;20.35;9.95;;;-1.10;99.90;;;;;;5033047;28;20056;-65
2023/01/18 06:32:09;;;;;;;15.30;10.43;;;-1.10;99.90;;;;;;5037463;28;20044;-65
2023/01/18 06:34:35;;;;;;;16.23;10.23;;;-1.10;99.90;;;;;;5033031;28;20754;-66
2023/01/18 06:37:02;;;;;;;15.43;10.00;;;-1.00;99.90;;;;;;5034215;28;20053;-63
2023/01/18 06:39:28;;;;;;;15.13;9.55;;;-1.10;99.90;;;;;;5027007;28;20067;-66
2023/01/18 06:41:54;;;;;;;17.42;9.73;;;-1.00;99.90;;;;;;5016633;28;20048;-59
2023/01/18 06:44:20;;;;;;;15.85;10.38;;;-1.10;99.90;;;;;;4981402;28;20052;-60
2023/01/18 06:46:46;;;;;;;15.82;10.00;;;-1.00;99.90;;;;;;4998182;28;20045;-61
2023/01/18 06:49:13;;;;;;;20.05;9.30;;;-1.00;99.90;;;;;;5017181;28;20084;-59
2023/01/18 06:51:40;;;;;;;12.77;9.20;;;-1.00;99.90;;;;;;5033702;28;20045;-58
2023/01/18 06:54:06;;;;;;;14.60;9.38;;;-1.00;99.90;;;;;;5015578;28;20045;-59
2023/01/18 06:56:32;;;;;;;15.60;9.43;;;-1.00;99.90;;;;;;5009274;28;20155;-60
2023/01/18 06:58:59;;;;;;;18.65;9.68;;;-1.00;99.90;;;;;;5035443;28;20087;-59
2023/01/18 07:01:25;;;;;;;16.42;9.65;;;-1.00;99.90;;;;;;5007305;28;20052;-60
2023/01/18 07:03:51;;;;;;;18.15;10.70;;;-1.00;99.90;;;;;;5008869;28;20048;-59
2023/01/18 07:06:17;;;;;;;17.15;10.13;;;-1.00;99.90;;;;;;4986626;28;20053;-61
2023/01/18 07:08:43;;;;;;;19.25;10.38;;;-1.00;99.90;;;;;;5016079;28;20048;-59
2023/01/18 07:11:11;;;;;;;15.98;10.25;;;-1.10;99.90;;;;;;5029195;28;20088;-59
2023/01/18 07:13:39;;;;;;;22.00;10.48;;;-1.00;99.90;;;;;;5043917;28;20067;-59
2023/01/18 07:16:06;;;;;;;16.77;10.02;;;-1.10;99.90;;;;;;5026065;28;20084;-59
2023/01/18 07:18:32;;;;;;;15.95;10.13;;;-1.10;99.90;;;;;;5043842;28;20136;-60
2023/01/18 07:21:09;;;;;;;19.75;10.70;;;-1.10;99.90;;;;;;5029484;28;20061;-59
2023/01/18 07:23:39;;;;;;;17.42;10.10;;;-1.10;99.90;;;;;;5047183;28;21194;-59
2023/01/18 07:26:07;;;;;;;14.98;9.90;;;-1.00;99.90;;;;;;5027570;28;20092;-58
2023/01/18 07:28:35;;;;;;;17.63;9.95;;;-1.10;99.90;;;;;;5047090;28;20051;-60
2023/01/18 07:31:01;;;;;;;15.90;10.20;;;-1.10;99.90;;;;;;5046667;28;20076;-59
2023/01/18 07:33:28;;;;;;;20.27;10.45;;;-1.10;99.90;;;;;;5023247;28;20049;-60
2023/01/18 07:35:56;;;;;;;17.55;9.98;;;-1.10;99.90;;;;;;5022819;28;20052;-61
2023/01/18 07:38:23;;;;;;;16.98;9.52;;;-1.10;99.90;;;;;;5039148;28;20057;-59
2023/01/18 07:40:49;;;;;;;15.85;9.82;;;-1.10;99.90;;;;;;5044558;28;20044;-58
2023/01/18 07:43:16;;;;;;;15.30;10.20;;;-1.00;99.90;;;;;;5042491;28;20052;-58
2023/01/18 07:45:43;;;;;;;17.10;10.18;;;-1.00;99.90;;;;;;5023298;28;20124;-59
2023/01/18 07:48:09;;;;;;;15.73;9.90;;;-1.00;99.90;;;;;;5028210;28;20053;-58
2023/01/18 07:50:35;;;;;;;20.73;10.07;;;-1.00;99.90;;;;;;5015028;28;20048;-59
2023/01/18 07:53:03;;;;;;;19.58;9.35;;;-1.00;99.90;;;;;;5014239;28;20052;-58
2023/01/18 07:55:32;;;;;;;14.40;9.60;;;-0.90;99.90;;;;;;5016650;28;20045;-58
2023/01/18 07:57:59;;;;;;;17.02;8.65;;;-0.90;99.90;;;;;;5017118;28;20560;-59
2023/01/18 08:00:26;;;;;;;14.48;9.65;;;-0.90;99.90;;;;;;5030415;28;20407;-60
2023/01/18 08:02:53;;;;;;;15.93;9.35;;;-0.90;99.90;;;;;;5033926;28;20064;-60
2023/01/18 08:05:22;;;;;;;18.08;8.98;;;-0.70;99.90;;;;;;5014829;28;22557;-58
2023/01/18 08:07:49;;;;;;;12.95;8.93;;;-0.80;99.90;;;;;;5013996;28;20040;-59
2023/01/18 08:10:16;;;;;;;17.52;8.60;;;-0.90;99.90;;;;;;5033759;28;20099;-59
2023/01/18 08:12:42;;;;;;;17.98;9.20;;;-0.80;99.90;;;;;;5031860;28;20060;-59
2023/01/18 08:15:08;;;;;;;16.35;9.43;;;-0.80;99.90;;;;;;5033721;28;20048;-60
2023/01/18 08:17:34;;;;;;;13.20;8.50;;;-0.80;99.90;;;;;;5010000;28;20458;-61
2023/01/18 08:20:00;;;;;;;16.48;8.55;;;-0.80;99.90;;;;;;5022744;28;20100;-60
2023/01/18 08:22:26;;;;;;;16.98;9.50;;;-0.80;99.90;;;;;;5032871;28;20048;-59
2023/01/18 08:24:52;;;;;;;13.00;8.48;;;-0.70;99.90;;;;;;5007588;28;20057;-59
2023/01/18 08:27:18;;;;;;;16.60;8.43;;;-0.70;99.90;;;;;;5013692;28;20061;-58
2023/01/18 08:29:45;;;;;;;14.00;7.90;;;-0.70;99.90;;;;;;5029674;28;21570;-60
2023/01/18 08:32:11;;;;;;;15.68;8.80;;;-0.70;99.90;;;;;;5008813;28;20113;-60
2023/01/18 08:34:37;;;;;;;12.65;7.35;;;-0.70;99.90;;;;;;5030106;28;20136;-59
2023/01/18 08:37:03;;;;;;;14.23;7.93;;;-0.70;99.90;;;;;;5009258;28;20114;-60
2023/01/18 08:39:29;;;;;;;13.35;7.95;;;-0.60;99.90;;;;;;5032809;28;20041;-59
2023/01/18 08:41:54;;;;;;;12.02;7.50;;;-0.60;99.90;;;;;;5029954;28;20048;-59
2023/01/18 08:44:20;;;;;;;14.32;7.68;;;-0.60;99.90;;;;;;5029853;28;20071;-58
2023/01/18 08:46:46;;;;;;;12.55;7.57;;;-0.50;99.90;;;;;;5032607;28;20036;-59
2023/01/18 08:49:12;;;;;;;13.13;7.55;;;-0.50;99.90;;;;;;5016279;28;20049;-61
2023/01/18 08:51:38;;;;;;;15.27;7.53;;;-0.50;99.90;;;;;;5012986;28;20053;-59
2023/01/18 08:54:05;;;;;;;10.20;7.10;;;-0.40;99.90;;;;;;5013349;28;20447;-59
2023/01/18 08:56:31;;;;;;;14.57;7.22;;;-0.30;99.90;;;;;;5032197;28;20052;-59
2023/01/18 08:58:57;;;;;;;11.77;7.30;;;-0.30;99.90;;;;;;5032463;28;20098;-59
2023/01/18 09:01:23;;;;;;;13.38;7.68;;;-0.30;99.90;;;;;;5030873;28;20045;-60
2023/01/18 09:03:51;;;;;;;13.95;6.85;;;-0.20;99.90;;;;;;5030222;28;20080;-60
2023/01/18 09:06:17;;;;;;;13.07;7.18;;;-0.10;99.90;;;;;;5033520;28;20479;-61
2023/01/18 09:08:47;;;;;;;12.93;7.05;;;-0.10;99.90;;;;;;5029437;28;20066;-59
2023/01/18 09:11:12;;;;;;;11.23;7.35;;;0.00;99.90;;;;;;5032291;28;20056;-59
2023/01/18 09:13:40;;;;;;;11.98;7.32;;;0.00;99.90;;;;;;5033754;28;20049;-60
2023/01/18 09:16:07;;;;;;;9.55;7.10;;;0.10;99.90;;;;;;4994667;28;20048;-59
2023/01/18 09:18:34;;;;;;;15.70;6.93;;;0.10;99.90;;;;;;5030866;28;20063;-60
2023/01/18 09:21:09;;;;;;;13.63;6.97;;;0.20;99.90;;;;;;5029597;28;20068;-59
2023/01/18 09:23:36;;;;;;;11.82;6.93;;;0.20;99.90;;;;;;5031608;28;20053;-59
2023/01/18 09:26:08;;;;;;;14.20;6.80;;;0.20;99.90;;;;;;5029886;28;21010;-60
2023/01/18 09:28:34;;;;;;;15.23;6.90;;;0.30;99.90;;;;;;5030230;28;20049;-60
2023/01/18 09:31:07;;;;;;;10.95;6.88;;;0.30;99.90;;;;;;5006568;28;20060;-60
2023/01/18 09:33:34;;;;;;;;;;;0.40;99.90;;;;;;5029609;28;20048;-59
2023/01/18 09:36:09;;;;;;;9.10;6.43;;;0.50;99.90;;;;;;5030176;28;19939;-59
2023/01/18 09:38:36;;;;;;;13.48;7.00;;;0.50;99.90;;;;;;5013644;28;20221;-61
2023/01/18 09:41:06;;;;;;;10.30;6.53;;;0.60;99.90;;;;;;5015052;28;20639;-59
2023/01/18 09:43:46;;;;;;;13.05;6.15;;;0.70;99.90;;;;;;5012646;28;20049;-59
2023/01/18 09:46:20;;;;;;;14.48;6.35;;;0.70;99.90;;;;;;5031728;28;20198;-60
2023/01/18 09:48:55;;;;;;;11.13;6.43;;;0.80;99.90;;;;;;5031810;28;20049;-58
2023/01/18 09:51:32;;;;;;;11.48;6.25;;;0.90;99.90;;;;;;5029739;28;20134;-60
2023/01/18 09:54:34;;;;;;;13.35;5.97;;;1.00;99.90;;;;;;5030665;28;20179;-60
2023/01/18 09:57:09;;;;;;;14.25;6.38;;;1.10;99.90;;;;;;5031007;28;20157;-61
2023/01/18 09:59:47;;;;;;;9.18;6.10;;;1.20;99.90;;;;;;5026522;28;20049;-61
2023/01/18 10:02:23;;;;;;;14.77;6.18;;;1.30;99.90;;;;;;5030629;28;20041;-59
2023/01/18 10:05:00;;;;;;;13.13;6.40;;;1.40;99.90;;;;;;5014438;28;20067;-59
2023/01/18 10:07:29;;;;;;;13.15;5.93;;;1.50;99.90;;;;;;5032645;28;20179;-59
2023/01/18 10:09:59;;;;;;;10.18;6.05;;;1.60;99.90;;;;;;5014359;28;20052;-60
2023/01/18 10:12:48;;;;;;;9.43;6.15;;;1.60;99.90;;;;;;5034007;28;20556;-59
2023/01/18 10:15:24;;;;;;;10.48;5.78;;;1.70;99.90;;;;;;5029108;28;20067;-59
2023/01/18 10:17:59;;;;;;;10.70;6.25;;;1.80;99.90;;;;;;5035202;28;20045;-59
2023/01/18 10:20:56;;;;;;;10.70;5.55;;;1.90;99.90;;;;;;5040014;28;20045;-60
2023/01/18 10:23:30;;;;;;;11.75;5.88;;;2.00;99.90;;;;;;5040175;28;20049;-61
2023/01/18 10:26:26;;;;;;;10.70;5.80;;;2.10;99.90;;;;;;5039386;28;20120;-59
2023/01/18 10:29:28;;;;;;;10.02;5.65;;;2.20;99.90;;;;;;5024444;28;20112;-61
2023/01/18 10:32:04;;;;;;;11.55;6.38;;;2.30;99.90;;;;;;5024963;28;20584;-59
2023/01/18 10:34:33;;;;;;;11.18;6.28;;;2.40;99.90;;;;;;5032791;28;20041;-60
2023/01/18 10:37:20;;;;;;;10.70;6.47;;;2.50;99.90;;;;;;5010699;28;20487;-59
2023/01/18 10:39:50;;;;;;;13.07;6.15;;;2.60;99.90;;;;;;5031406;28;20037;-61
2023/01/18 10:42:22;;;;;;;10.77;5.93;;;2.60;99.90;;;;;;5029924;28;20130;-60
2023/01/18 10:44:48;;;;;;;9.13;5.53;;;2.70;99.90;;;;;;5032661;28;20550;-60
2023/01/18 10:47:19;;;;;;;12.48;5.93;;;2.80;99.90;;;;;;5033878;28;20574;-60
2023/01/18 10:49:47;;;;;;;12.88;5.72;;;2.90;99.90;;;;;;5038182;28;20518;-59
2023/01/18 10:52:18;;;;;;;9.48;5.78;;;3.00;99.90;;;;;;5035290;28;20066;-59
2023/01/18 10:55:14;;;;;;;9.23;5.38;;;3.10;99.90;;;;;;5019289;28;20063;-61
2023/01/18 10:57:46;;;;;;;8.40;5.88;;;3.20;99.90;;;;;;5035786;28;20167;-59
2023/01/18 11:00:33;;;;;;;12.15;5.85;;;3.20;99.90;;;;;;5020476;28;20053;-58
2023/01/18 11:03:02;;;;;;;11.02;6.18;;;3.30;99.90;;;;;;5009759;28;20056;-61
2023/01/18 11:05:42;;;;;;;10.98;6.03;;;3.40;99.90;;;;;;5034204;28;20087;-61
2023/01/18 11:08:30;;;;;;;11.68;6.35;;;3.40;99.90;;;;;;5017941;28;20041;-60
2023/01/18 11:11:02;;;;;;;9.23;5.78;;;3.50;99.90;;;;;;5035866;28;20053;-60
2023/01/18 11:13:34;;;;;;;9.27;5.70;;;3.60;99.90;;;;;;5033078;28;20080;-60
2023/01/18 11:16:19;;;;;;;11.73;5.88;;;3.70;99.90;;;;;;5018503;28;20153;-60
2023/01/18 11:19:04;;;;;;;13.85;5.82;;;3.80;99.90;;;;;;5018646;28;20099;-60
2023/01/18 11:21:41;;;;;;;11.45;6.13;;;3.90;99.90;;;;;;5015984;28;20097;-60
2023/01/18 11:24:17;;;;;;;9.55;5.82;;;4.00;99.90;;;;;;5011965;28;20474;-60
2023/01/18 11:26:59;;;;;;;10.70;5.80;;;4.10;99.90;;;;;;4996499;28;20106;-61
2023/01/18 11:29:38;;;;;;;10.65;5.85;;;4.10;99.90;;;;;;5036228;28;20055;-60
2023/01/18 11:32:24;;;;;;;11.80;5.63;;;4.10;99.90;;;;;;5035997;28;20044;-59
2023/01/18 11:34:56;;;;;;;11.05;5.13;;;4.10;99.90;;;;;;5036750;28;20072;-59
2023/01/18 11:37:34;;;;;;;11.05;5.82;;;4.00;99.90;;;;;;5018663;28;20323;-60
2023/01/18 11:40:25;;;;;;;9.85;5.55;;;4.00;99.90;;;;;;5019416;28;20048;-61
2023/01/18 11:42:57;;;;;;;8.57;5.25;;;3.90;99.90;;;;;;5012055;28;20215;-60
2023/01/18 11:45:34;;;;;;;11.45;5.20;;;3.90;99.90;;;;;;5032505;28;20041;-59
2023/01/18 11:48:21;;;;;;;9.52;5.32;;;3.90;99.90;;;;;;5016402;28;20045;-59
2023/01/18 11:50:55;;;;;;;10.25;5.80;;;3.80;99.90;;;;;;5032056;28;20041;-59
2023/01/18 11:53:42;;;;;;;8.63;4.90;;;3.80;99.90;;;;;;5035047;28;20056;-60
2023/01/18 11:56:32;;;;;;;10.05;5.03;;;3.90;99.90;;;;;;5037668;28;20126;-60
2023/01/18 11:59:01;;;;;;;7.57;5.22;;;3.90;99.90;;;;;;5034100;28;20079;-59
2023/01/18 12:01:26;;;;;;;11.50;5.65;;;3.90;99.90;;;;;;5034353;28;20047;-61
2023/01/18 12:04:22;;;;;;;9.70;5.40;;;4.00;99.90;;;;;;5017900;28;20048;-60
2023/01/18 12:07:22;;;;;;;7.55;5.10;;;4.00;99.90;;;;;;5008215;28;20499;-60
2023/01/18 12:09:54;;;;;;;8.65;5.10;;;4.00;99.90;;;;;;5034847;28;20048;-58
2023/01/18 12:12:29;;;;;;;12.53;5.37;;;4.00;99.90;;;;;;5019127;28;20071;-59
2023/01/18 12:15:02;;;;;;;8.18;4.80;;;4.00;99.90;;;;;;5017335;28;20543;-60
2023/01/18 12:18:05;;;;;;;11.23;4.45;;;4.00;99.90;;;;;;5028603;28;20131;-60
2023/01/18 12:21:00;;;;;;;7.37;4.47;;;4.00;99.90;;;;;;5030601;28;20053;-60
2023/01/18 12:23:50;;;;;;;11.70;4.90;;;4.00;99.90;;;;;;5021244;28;20412;-59
2023/01/18 12:26:37;;;;;;;7.78;5.15;;;3.90;99.90;;;;;;5013850;28;20545;-58
2023/01/18 12:29:20;;;;;;;11.02;4.43;;;3.90;99.90;;;;;;5012374;28;20565;-59
2023/01/18 12:32:13;;;;;;;9.10;4.82;;;3.90;99.90;;;;;;5012853;28;20045;-59
2023/01/18 12:35:15;;;;;;;8.30;4.20;;;3.90;99.90;;;;;;5027476;28;20055;-61
2023/01/18 12:37:50;;;;;;;9.35;5.10;;;3.90;99.90;;;;;;5024301;28;20056;-59
2023/01/18 12:40:30;;;;;;;11.30;4.90;;;3.90;99.90;;;;;;4991114;28;20055;-59
2023/01/18 12:43:18;;;;;;;11.95;4.40;;;4.00;99.90;;;;;;5030330;28;20318;-58
2023/01/18 12:45:46;;;;;;;10.13;4.50;;;4.00;99.90;;;;;;5011613;28;20045;-59
2023/01/18 12:48:18;;;;;;;7.68;4.88;;;4.00;99.90;;;;;;5021290;28;20476;-61
2023/01/18 12:50:48;;;;;;;7.85;4.57;;;4.10;99.90;;;;;;5007959;28;20045;-60
2023/01/18 12:53:17;;;;;;;6.70;4.70;;;4.10;99.90;;;;;;5031156;28;20037;-60
2023/01/18 12:55:48;;;;;;;6.93;4.32;;;4.20;99.90;;;;;;5025389;28;20041;-59
2023/01/18 12:58:19;;;;;;;9.57;4.25;;;4.30;99.90;;;;;;5010134;28;20048;-59
2023/01/18 13:00:52;;;;;;;9.15;4.25;;;4.40;99.90;;;;;;5027279;28;20123;-60
2023/01/18 13:03:24;;;;;;;7.72;4.35;;;4.40;99.90;;;;;;5011996;28;20049;-59
2023/01/18 13:05:53;;;;;;;9.77;4.70;;;4.40;99.90;;;;;;5015013;28;20052;-59
2023/01/18 13:08:33;;;;;;;10.70;5.03;;;4.40;99.90;;;;;;5015922;28;20048;-60
2023/01/18 13:11:13;;;;;;;8.70;4.78;;;4.30;99.90;;;;;;5028473;28;20128;-60
2023/01/18 13:13:41;;;;;;;10.02;4.50;;;4.30;99.90;;;;;;5030464;28;20194;-59
2023/01/18 13:16:24;;;;;;;10.25;4.80;;;4.20;99.90;;;;;;5027639;28;20059;-59
2023/01/18 13:18:59;;;;;;;7.32;4.30;;;4.10;99.90;;;;;;5028171;28;20111;-59
2023/01/18 13:21:43;;;;;;;11.30;4.70;;;4.10;99.90;;;;;;5027825;28;20045;-59
2023/01/18 13:24:35;;;;;;;10.57;4.80;;;4.10;99.90;;;;;;5029003;28;20053;-60
2023/01/18 13:27:12;;;;;;;9.77;4.45;;;4.00;99.90;;;;;;5032174;28;20584;-58
2023/01/18 13:29:39;;;;;;;7.45;4.35;;;4.00;99.90;;;;;;5006458;28;20049;-60
2023/01/18 13:32:32;;;;;;;9.07;4.57;;;4.10;99.90;;;;;;5015785;28;20049;-59
2023/01/18 13:35:04;;;;;;;7.63;4.28;;;4.10;99.90;;;;;;5031064;28;20088;-59
2023/01/18 13:37:49;;;;;;;8.87;4.67;;;4.10;99.90;;;;;;5029724;28;21690;-60
2023/01/18 13:40:37;;;;;;;7.22;4.40;;;4.00;99.90;;;;;;5031635;28;20400;-59
2023/01/18 13:43:04;;;;;;;6.00;4.00;;;4.00;99.90;;;;;;5029453;28;20053;-61